Terminal Aerodrome Forecast
Issued by NWS

Home | Current Version | Previous Version | Text Only | Print | Product List | Glossary On
Versions: 1 2 3 4 5 6 7 8 9 10 11 12
000
FTUS46 KSGX 262328
TAFPSP
TAF
KPSP 262328Z 2700/2724 35012KT P6SM SKC
     FM270700 VRB05KT P6SM SKC
     FM272000 14008KT P6SM SCT100=

USA.gov is the U.S. government's official web portal to all federal, state and local government web resources and services.